sensor_id;sensor_type;location;lat;lon;timestamp;temperature;humidity
3504;DHT22;1766;53.490;10.174;2024-03-02T00:00:28;16.10;49.00
3504;DHT22;1766;53.490;10.174;2024-03-02T00:02:30;16.00;48.90
3504;DHT22;1766;53.490;10.174;2024-03-02T00:04:31;16.00;49.00
3504;DHT22;1766;53.490;10.174;2024-03-02T00:06:34;16.00;49.00
3504;DHT22;1766;53.490;10.174;2024-03-02T00:08:36;16.00;49.20
3504;DHT22;1766;53.490;10.174;2024-03-02T00:10:39;15.90;49.00
3504;DHT22;1766;53.490;10.174;2024-03-02T00:12:40;16.00;49.30
3504;DHT22;1766;53.490;10.174;2024-03-02T00:14:42;15.90;49.20
3504;DHT22;1766;53.490;10.174;2024-03-02T00:16:45;15.90;49.10
3504;DHT22;1766;53.490;10.174;2024-03-02T00:18:47;15.90;49.20
3504;DHT22;1766;53.490;10.174;2024-03-02T00:20:49;15.90;49.40
3504;DHT22;1766;53.490;10.174;2024-03-02T00:23:03;15.90;49.30
3504;DHT22;1766;53.490;10.174;2024-03-02T00:25:06;15.90;49.40
3504;DHT22;1766;53.490;10.174;2024-03-02T00:27:14;15.80;49.40
3504;DHT22;1766;53.490;10.174;2024-03-02T00:29:16;15.90;49.40
3504;DHT22;1766;53.490;10.174;2024-03-02T00:31:20;15.80;49.40
3504;DHT22;1766;53.490;10.174;2024-03-02T00:33:26;15.80;49.30
3504;DHT22;1766;53.490;10.174;2024-03-02T00:35:29;15.80;49.50
3504;DHT22;1766;53.490;10.174;2024-03-02T00:37:30;15.80;49.40
3504;DHT22;1766;53.490;10.174;2024-03-02T00:39:33;15.80;49.50
3504;DHT22;1766;53.490;10.174;2024-03-02T00:41:35;15.80;49.60
3504;DHT22;1766;53.490;10.174;2024-03-02T00:43:43;15.80;49.60
3504;DHT22;1766;53.490;10.174;2024-03-02T00:45:46;15.80;49.70
3504;DHT22;1766;53.490;10.174;2024-03-02T00:47:48;15.70;50.20
3504;DHT22;1766;53.490;10.174;2024-03-02T00:49:52;15.70;49.70
3504;DHT22;1766;53.490;10.174;2024-03-02T00:51:54;15.70;49.70
3504;DHT22;1766;53.490;10.174;2024-03-02T00:53:58;15.70;49.80
3504;DHT22;1766;53.490;10.174;2024-03-02T00:56:01;15.70;49.90
3504;DHT22;1766;53.490;10.174;2024-03-02T00:58:03;15.70;49.90
3504;DHT22;1766;53.490;10.174;2024-03-02T01:00:06;15.70;49.90
3504;DHT22;1766;53.490;10.174;2024-03-02T01:02:12;15.60;49.90
3504;DHT22;1766;53.490;10.174;2024-03-02T01:04:14;15.60;49.90
3504;DHT22;1766;53.490;10.174;2024-03-02T01:06:18;15.60;50.00
3504;DHT22;1766;53.490;10.174;2024-03-02T01:08:20;16.10;50.40
3504;DHT22;1766;53.490;10.174;2024-03-02T01:10:22;15.50;50.00
3504;DHT22;1766;53.490;10.174;2024-03-02T01:12:24;15.50;50.10
3504;DHT22;1766;53.490;10.174;2024-03-02T01:14:25;15.50;50.10
3504;DHT22;1766;53.490;10.174;2024-03-02T01:16:26;15.50;50.20
3504;DHT22;1766;53.490;10.174;2024-03-02T01:18:28;15.50;50.30
3504;DHT22;1766;53.490;10.174;2024-03-02T01:20:31;15.40;50.20
3504;DHT22;1766;53.490;10.174;2024-03-02T01:22:33;15.40;50.20
3504;DHT22;1766;53.490;10.174;2024-03-02T01:24:36;15.40;50.30
3504;DHT22;1766;53.490;10.174;2024-03-02T01:26:38;15.40;50.30
3504;DHT22;1766;53.490;10.174;2024-03-02T01:28:40;15.40;50.50
3504;DHT22;1766;53.490;10.174;2024-03-02T01:30:42;15.40;50.40
3504;DHT22;1766;53.490;10.174;2024-03-02T01:32:44;15.40;50.50
3504;DHT22;1766;53.490;10.174;2024-03-02T01:34:45;15.40;50.50
3504;DHT22;1766;53.490;10.174;2024-03-02T01:36:46;15.40;50.50
3504;DHT22;1766;53.490;10.174;2024-03-02T01:38:50;15.40;50.60
3504;DHT22;1766;53.490;10.174;2024-03-02T01:40:51;15.40;50.60
3504;DHT22;1766;53.490;10.174;2024-03-02T01:42:53;15.40;50.60
3504;DHT22;1766;53.490;10.174;2024-03-02T01:44:56;15.40;50.80
3504;DHT22;1766;53.490;10.174;2024-03-02T01:46:57;15.40;50.80
3504;DHT22;1766;53.490;10.174;2024-03-02T01:48:59;15.40;50.80
3504;DHT22;1766;53.490;10.174;2024-03-02T01:51:00;15.40;50.80
3504;DHT22;1766;53.490;10.174;2024-03-02T01:53:02;15.40;50.80
3504;DHT22;1766;53.490;10.174;2024-03-02T01:55:06;15.40;50.90
3504;DHT22;1766;53.490;10.174;2024-03-02T01:57:08;15.40;51.00
3504;DHT22;1766;53.490;10.174;2024-03-02T01:59:10;15.40;51.00
3504;DHT22;1766;53.490;10.174;2024-03-02T02:01:13;15.40;51.00
3504;DHT22;1766;53.490;10.174;2024-03-02T02:03:17;15.40;51.10
3504;DHT22;1766;53.490;10.174;2024-03-02T02:05:19;15.40;51.00
3504;DHT22;1766;53.490;10.174;2024-03-02T02:07:21;15.40;51.00
3504;DHT22;1766;53.490;10.174;2024-03-02T02:09:22;15.40;51.00
3504;DHT22;1766;53.490;10.174;2024-03-02T02:11:25;15.40;51.10
3504;DHT22;1766;53.490;10.174;2024-03-02T02:13:27;15.30;51.00
3504;DHT22;1766;53.490;10.174;2024-03-02T02:15:29;15.30;51.00
3504;DHT22;1766;53.490;10.174;2024-03-02T02:17:32;15.40;51.30
3504;DHT22;1766;53.490;10.174;2024-03-02T02:19:33;15.40;51.20
3504;DHT22;1766;53.490;10.174;2024-03-02T02:21:36;15.30;51.20
3504;DHT22;1766;53.490;10.174;2024-03-02T02:23:38;15.30;51.20
3504;DHT22;1766;53.490;10.174;2024-03-02T02:25:40;15.30;51.20
3504;DHT22;1766;53.490;10.174;2024-03-02T02:27:42;15.40;51.30
3504;DHT22;1766;53.490;10.174;2024-03-02T02:29:44;15.30;51.10
3504;DHT22;1766;53.490;10.174;2024-03-02T02:31:46;15.30;51.20
3504;DHT22;1766;53.490;10.174;2024-03-02T02:33:47;15.30;51.20
3504;DHT22;1766;53.490;10.174;2024-03-02T02:35:49;15.20;51.20
3504;DHT22;1766;53.490;10.174;2024-03-02T02:37:52;15.20;51.20
3504;DHT22;1766;53.490;10.174;2024-03-02T02:39:56;15.20;51.30
3504;DHT22;1766;53.490;10.174;2024-03-02T02:41:57;15.20;51.80
3504;DHT22;1766;53.490;10.174;2024-03-02T02:43:58;15.20;51.30
3504;DHT22;1766;53.490;10.174;2024-03-02T02:46:00;15.20;51.40
3504;DHT22;1766;53.490;10.174;2024-03-02T02:48:02;15.20;51.40
3504;DHT22;1766;53.490;10.174;2024-03-02T02:50:07;15.20;51.40
3504;DHT22;1766;53.490;10.174;2024-03-02T02:52:09;15.10;51.30
3504;DHT22;1766;53.490;10.174;2024-03-02T02:54:11;15.20;51.50
3504;DHT22;1766;53.490;10.174;2024-03-02T02:56:14;15.10;51.40
3504;DHT22;1766;53.490;10.174;2024-03-02T02:58:16;15.10;51.40
3504;DHT22;1766;53.490;10.174;2024-03-02T03:00:18;15.10;51.50
3504;DHT22;1766;53.490;10.174;2024-03-02T03:02:20;15.10;51.60
3504;DHT22;1766;53.490;10.174;2024-03-02T03:04:22;15.10;52.00
3504;DHT22;1766;53.490;10.174;2024-03-02T03:06:24;15.10;51.50
3504;DHT22;1766;53.490;10.174;2024-03-02T03:08:26;15.10;51.50
3504;DHT22;1766;53.490;10.174;2024-03-02T03:10:29;15.10;51.60
3504;DHT22;1766;53.490;10.174;2024-03-02T03:12:30;15.00;51.50
3504;DHT22;1766;53.490;10.174;2024-03-02T03:14:32;15.00;51.50
3504;DHT22;1766;53.490;10.174;2024-03-02T03:16:34;15.00;51.50
3504;DHT22;1766;53.490;10.174;2024-03-02T03:18:36;15.00;51.50
3504;DHT22;1766;53.490;10.174;2024-03-02T03:20:38;15.00;51.60
3504;DHT22;1766;53.490;10.174;2024-03-02T03:22:40;15.00;51.60
3504;DHT22;1766;53.490;10.174;2024-03-02T03:24:41;15.00;51.60
3504;DHT22;1766;53.490;10.174;2024-03-02T03:26:45;15.00;52.20
3504;DHT22;1766;53.490;10.174;2024-03-02T03:28:46;15.00;51.70
3504;DHT22;1766;53.490;10.174;2024-03-02T03:30:47;14.90;51.70
3504;DHT22;1766;53.490;10.174;2024-03-02T03:32:49;14.90;51.60
3504;DHT22;1766;53.490;10.174;2024-03-02T03:34:51;15.00;51.70
3504;DHT22;1766;53.490;10.174;2024-03-02T03:36:53;14.90;51.60
3504;DHT22;1766;53.490;10.174;2024-03-02T03:38:55;14.90;51.60
3504;DHT22;1766;53.490;10.174;2024-03-02T03:40:58;14.90;51.50
3504;DHT22;1766;53.490;10.174;2024-03-02T03:43:01;14.90;51.60
3504;DHT22;1766;53.490;10.174;2024-03-02T03:45:03;14.90;51.70
3504;DHT22;1766;53.490;10.174;2024-03-02T03:47:05;14.90;51.40
3504;DHT22;1766;53.490;10.174;2024-03-02T03:49:07;14.90;51.80
3504;DHT22;1766;53.490;10.174;2024-03-02T03:51:09;14.90;51.70
3504;DHT22;1766;53.490;10.174;2024-03-02T03:53:11;14.90;51.60
3504;DHT22;1766;53.490;10.174;2024-03-02T03:55:12;14.80;51.60
3504;DHT22;1766;53.490;10.174;2024-03-02T03:57:14;14.90;51.80
3504;DHT22;1766;53.490;10.174;2024-03-02T03:59:17;14.90;51.80
3504;DHT22;1766;53.490;10.174;2024-03-02T04:01:20;14.90;51.70
3504;DHT22;1766;53.490;10.174;2024-03-02T04:03:22;14.90;51.80
3504;DHT22;1766;53.490;10.174;2024-03-02T04:05:24;14.90;51.70
3504;DHT22;1766;53.490;10.174;2024-03-02T04:07:27;15.00;51.80
3504;DHT22;1766;53.490;10.174;2024-03-02T04:09:28;14.90;51.70
3504;DHT22;1766;53.490;10.174;2024-03-02T04:11:30;15.00;51.80
3504;DHT22;1766;53.490;10.174;2024-03-02T04:13:32;15.00;51.80
3504;DHT22;1766;53.490;10.174;2024-03-02T04:15:34;15.00;51.80
3504;DHT22;1766;53.490;10.174;2024-03-02T04:17:36;15.00;51.80
3504;DHT22;1766;53.490;10.174;2024-03-02T04:19:38;15.00;51.80
3504;DHT22;1766;53.490;10.174;2024-03-02T04:21:40;14.90;51.70
3504;DHT22;1766;53.490;10.174;2024-03-02T04:23:42;14.90;51.70
3504;DHT22;1766;53.490;10.174;2024-03-02T04:25:44;14.90;51.80
3504;DHT22;1766;53.490;10.174;2024-03-02T04:27:46;14.90;51.80
3504;DHT22;1766;53.490;10.174;2024-03-02T04:29:48;14.90;51.80
3504;DHT22;1766;53.490;10.174;2024-03-02T04:31:50;14.90;51.80
3504;DHT22;1766;53.490;10.174;2024-03-02T04:33:52;14.90;51.70
3504;DHT22;1766;53.490;10.174;2024-03-02T04:35:54;14.90;51.70
3504;DHT22;1766;53.490;10.174;2024-03-02T04:37:56;14.90;51.70
3504;DHT22;1766;53.490;10.174;2024-03-02T04:39:58;14.90;51.70
3504;DHT22;1766;53.490;10.174;2024-03-02T04:42:00;14.90;51.70
3504;DHT22;1766;53.490;10.174;2024-03-02T04:44:01;14.90;51.70
3504;DHT22;1766;53.490;10.174;2024-03-02T04:46:03;14.90;51.70
3504;DHT22;1766;53.490;10.174;2024-03-02T04:48:08;14.90;51.50
3504;DHT22;1766;53.490;10.174;2024-03-02T04:50:10;14.90;51.70
3504;DHT22;1766;53.490;10.174;2024-03-02T04:52:11;15.00;51.70
3504;DHT22;1766;53.490;10.174;2024-03-02T04:54:13;15.00;51.70
3504;DHT22;1766;53.490;10.174;2024-03-02T04:56:15;15.00;51.70
3504;DHT22;1766;53.490;10.174;2024-03-02T04:58:31;15.00;51.70
3504;DHT22;1766;53.490;10.174;2024-03-02T05:00:33;15.00;51.70
3504;DHT22;1766;53.490;10.174;2024-03-02T05:02:35;15.00;51.80
3504;DHT22;1766;53.490;10.174;2024-03-02T05:04:39;15.00;51.70
3504;DHT22;1766;53.490;10.174;2024-03-02T05:06:41;15.00;51.50
3504;DHT22;1766;53.490;10.174;2024-03-02T05:08:43;15.00;51.60
3504;DHT22;1766;53.490;10.174;2024-03-02T05:10:45;15.00;51.60
3504;DHT22;1766;53.490;10.174;2024-03-02T05:12:47;15.10;51.60
3504;DHT22;1766;53.490;10.174;2024-03-02T05:14:57;15.00;51.60
3504;DHT22;1766;53.490;10.174;2024-03-02T05:16:59;15.00;51.50
3504;DHT22;1766;53.490;10.174;2024-03-02T05:19:01;14.90;51.50
3504;DHT22;1766;53.490;10.174;2024-03-02T05:21:05;14.90;51.50
3504;DHT22;1766;53.490;10.174;2024-03-02T05:23:06;14.90;51.50
3504;DHT22;1766;53.490;10.174;2024-03-02T05:25:08;14.90;51.50
3504;DHT22;1766;53.490;10.174;2024-03-02T05:27:10;14.90;51.60
3504;DHT22;1766;53.490;10.174;2024-03-02T05:29:12;14.80;51.40
3504;DHT22;1766;53.490;10.174;2024-03-02T05:31:15;14.80;51.50
3504;DHT22;1766;53.490;10.174;2024-03-02T05:33:17;14.80;51.50
3504;DHT22;1766;53.490;10.174;2024-03-02T05:35:19;14.80;51.50
3504;DHT22;1766;53.490;10.174;2024-03-02T05:37:22;14.80;51.50
3504;DHT22;1766;53.490;10.174;2024-03-02T05:39:24;14.80;51.50
3504;DHT22;1766;53.490;10.174;2024-03-02T05:41:25;14.80;51.50
3504;DHT22;1766;53.490;10.174;2024-03-02T05:43:27;14.70;51.40
3504;DHT22;1766;53.490;10.174;2024-03-02T05:45:29;14.70;51.40
3504;DHT22;1766;53.490;10.174;2024-03-02T05:47:30;14.80;51.50
3504;DHT22;1766;53.490;10.174;2024-03-02T05:49:33;14.80;51.50
3504;DHT22;1766;53.490;10.174;2024-03-02T05:51:35;14.80;51.40
3504;DHT22;1766;53.490;10.174;2024-03-02T05:53:38;14.80;51.40
3504;DHT22;1766;53.490;10.174;2024-03-02T05:55:40;14.80;51.40
3504;DHT22;1766;53.490;10.174;2024-03-02T05:57:42;14.60;51.20
3504;DHT22;1766;53.490;10.174;2024-03-02T05:59:59;14.80;51.30
3504;DHT22;1766;53.490;10.174;2024-03-02T06:02:01;14.80;51.30
3504;DHT22;1766;53.490;10.174;2024-03-02T06:04:03;14.80;51.70
3504;DHT22;1766;53.490;10.174;2024-03-02T06:06:05;14.80;51.30
3504;DHT22;1766;53.490;10.174;2024-03-02T06:08:07;14.70;51.30
3504;DHT22;1766;53.490;10.174;2024-03-02T06:10:10;14.70;51.30
3504;DHT22;1766;53.490;10.174;2024-03-02T06:12:12;14.70;51.40
3504;DHT22;1766;53.490;10.174;2024-03-02T06:14:14;14.70;51.40
3504;DHT22;1766;53.490;10.174;2024-03-02T06:16:16;14.70;51.30
3504;DHT22;1766;53.490;10.174;2024-03-02T06:18:18;14.70;51.30
3504;DHT22;1766;53.490;10.174;2024-03-02T06:20:20;14.70;51.30
3504;DHT22;1766;53.490;10.174;2024-03-02T06:22:21;14.70;51.40
3504;DHT22;1766;53.490;10.174;2024-03-02T06:24:25;14.70;51.40
3504;DHT22;1766;53.490;10.174;2024-03-02T06:26:28;14.70;51.40
3504;DHT22;1766;53.490;10.174;2024-03-02T06:28:32;14.60;51.30
3504;DHT22;1766;53.490;10.174;2024-03-02T06:30:34;14.60;51.30
3504;DHT22;1766;53.490;10.174;2024-03-02T06:32:35;14.70;51.40
3504;DHT22;1766;53.490;10.174;2024-03-02T06:34:37;14.70;51.40
3504;DHT22;1766;53.490;10.174;2024-03-02T06:36:39;14.70;51.40
3504;DHT22;1766;53.490;10.174;2024-03-02T06:38:43;14.70;51.40
3504;DHT22;1766;53.490;10.174;2024-03-02T06:40:44;14.70;51.30
3504;DHT22;1766;53.490;10.174;2024-03-02T06:42:48;14.80;51.40
3504;DHT22;1766;53.490;10.174;2024-03-02T06:44:49;14.80;51.40
3504;DHT22;1766;53.490;10.174;2024-03-02T06:46:51;14.80;51.40
3504;DHT22;1766;53.490;10.174;2024-03-02T06:48:52;14.80;51.40
3504;DHT22;1766;53.490;10.174;2024-03-02T06:50:53;14.80;51.50
3504;DHT22;1766;53.490;10.174;2024-03-02T06:52:56;15.00;52.00
3504;DHT22;1766;53.490;10.174;2024-03-02T06:54:58;15.10;51.90
3504;DHT22;1766;53.490;10.174;2024-03-02T06:57:00;15.30;51.80
3504;DHT22;1766;53.490;10.174;2024-03-02T06:59:03;15.40;51.70
3504;DHT22;1766;53.490;10.174;2024-03-02T07:01:05;15.50;51.50
3504;DHT22;1766;53.490;10.174;2024-03-02T07:03:07;15.50;51.50
3504;DHT22;1766;53.490;10.174;2024-03-02T07:05:09;15.60;51.60
3504;DHT22;1766;53.490;10.174;2024-03-02T07:07:11;15.70;51.70
3504;DHT22;1766;53.490;10.174;2024-03-02T07:09:12;15.80;51.80
3504;DHT22;1766;53.490;10.174;2024-03-02T07:11:14;16.00;51.70
3504;DHT22;1766;53.490;10.174;2024-03-02T07:13:16;16.10;51.80
3504;DHT22;1766;53.490;10.174;2024-03-02T07:15:19;16.30;51.90
3504;DHT22;1766;53.490;10.174;2024-03-02T07:17:37;16.50;51.80
3504;DHT22;1766;53.490;10.174;2024-03-02T07:19:39;16.70;51.70
3504;DHT22;1766;53.490;10.174;2024-03-02T07:21:41;16.80;51.40
3504;DHT22;1766;53.490;10.174;2024-03-02T07:23:43;16.80;51.30
3504;DHT22;1766;53.490;10.174;2024-03-02T07:25:44;16.80;51.00
3504;DHT22;1766;53.490;10.174;2024-03-02T07:27:46;16.80;51.00
3504;DHT22;1766;53.490;10.174;2024-03-02T07:29:48;16.80;50.80
3504;DHT22;1766;53.490;10.174;2024-03-02T07:31:51;16.80;50.90
3504;DHT22;1766;53.490;10.174;2024-03-02T07:33:52;16.70;50.40
3504;DHT22;1766;53.490;10.174;2024-03-02T07:35:54;16.60;50.30
3504;DHT22;1766;53.490;10.174;2024-03-02T07:37:55;16.50;50.30
3504;DHT22;1766;53.490;10.174;2024-03-02T07:39:58;16.50;50.50
3504;DHT22;1766;53.490;10.174;2024-03-02T07:42:00;16.60;50.30
3504;DHT22;1766;53.490;10.174;2024-03-02T07:44:02;16.50;50.20
3504;DHT22;1766;53.490;10.174;2024-03-02T07:46:04;16.40;50.00
3504;DHT22;1766;53.490;10.174;2024-03-02T07:48:08;16.40;49.90
3504;DHT22;1766;53.490;10.174;2024-03-02T07:50:10;16.30;49.90
3504;DHT22;1766;53.490;10.174;2024-03-02T07:52:11;16.20;49.70
3504;DHT22;1766;53.490;10.174;2024-03-02T07:54:13;16.20;49.70
3504;DHT22;1766;53.490;10.174;2024-03-02T07:56:15;16.10;49.60
3504;DHT22;1766;53.490;10.174;2024-03-02T07:58:22;16.00;49.60
3504;DHT22;1766;53.490;10.174;2024-03-02T08:00:24;16.00;49.60
3504;DHT22;1766;53.490;10.174;2024-03-02T08:02:27;15.90;49.60
3504;DHT22;1766;53.490;10.174;2024-03-02T08:04:31;15.90;49.60
3504;DHT22;1766;53.490;10.174;2024-03-02T08:06:32;15.80;49.50
3504;DHT22;1766;53.490;10.174;2024-03-02T08:08:33;15.80;49.60
3504;DHT22;1766;53.490;10.174;2024-03-02T08:10:35;15.80;49.60
3504;DHT22;1766;53.490;10.174;2024-03-02T08:12:37;15.90;49.60
3504;DHT22;1766;53.490;10.174;2024-03-02T08:14:39;15.90;49.60
3504;DHT22;1766;53.490;10.174;2024-03-02T08:16:41;15.90;49.50
3504;DHT22;1766;53.490;10.174;2024-03-02T08:18:43;15.90;49.40
3504;DHT22;1766;53.490;10.174;2024-03-02T08:20:46;15.90;49.30
3504;DHT22;1766;53.490;10.174;2024-03-02T08:22:48;16.00;49.40
3504;DHT22;1766;53.490;10.174;2024-03-02T08:24:51;16.00;49.30
3504;DHT22;1766;53.490;10.174;2024-03-02T08:26:53;16.10;49.30
3504;DHT22;1766;53.490;10.174;2024-03-02T08:28:55;16.10;49.20
3504;DHT22;1766;53.490;10.174;2024-03-02T08:30:57;16.10;49.10
3504;DHT22;1766;53.490;10.174;2024-03-02T08:32:59;16.10;49.00
3504;DHT22;1766;53.490;10.174;2024-03-02T08:35:00;16.20;49.00
3504;DHT22;1766;53.490;10.174;2024-03-02T08:37:04;16.20;48.90
3504;DHT22;1766;53.490;10.174;2024-03-02T08:39:06;16.20;48.90
3504;DHT22;1766;53.490;10.174;2024-03-02T08:41:15;16.10;48.90
3504;DHT22;1766;53.490;10.174;2024-03-02T08:43:17;16.10;48.80
3504;DHT22;1766;53.490;10.174;2024-03-02T08:45:19;16.10;48.60
3504;DHT22;1766;53.490;10.174;2024-03-02T08:47:21;16.10;48.70
3504;DHT22;1766;53.490;10.174;2024-03-02T08:49:23;16.10;48.60
3504;DHT22;1766;53.490;10.174;2024-03-02T08:51:25;16.10;48.70
3504;DHT22;1766;53.490;10.174;2024-03-02T08:53:28;16.20;48.70
3504;DHT22;1766;53.490;10.174;2024-03-02T08:55:30;16.20;48.60
3504;DHT22;1766;53.490;10.174;2024-03-02T08:57:33;16.20;48.50
3504;DHT22;1766;53.490;10.174;2024-03-02T08:59:34;16.20;48.40
3504;DHT22;1766;53.490;10.174;2024-03-02T09:01:36;16.30;48.60
3504;DHT22;1766;53.490;10.174;2024-03-02T09:03:42;16.30;48.60
3504;DHT22;1766;53.490;10.174;2024-03-02T09:05:45;16.40;48.60
3504;DHT22;1766;53.490;10.174;2024-03-02T09:07:46;16.40;48.40
3504;DHT22;1766;53.490;10.174;2024-03-02T09:09:49;16.40;48.30
3504;DHT22;1766;53.490;10.174;2024-03-02T09:11:51;16.50;48.30
3504;DHT22;1766;53.490;10.174;2024-03-02T09:13:55;16.50;48.30
3504;DHT22;1766;53.490;10.174;2024-03-02T09:15:58;16.60;48.30
3504;DHT22;1766;53.490;10.174;2024-03-02T09:18:00;16.60;48.10
3504;DHT22;1766;53.490;10.174;2024-03-02T09:20:02;16.60;48.10
3504;DHT22;1766;53.490;10.174;2024-03-02T09:22:04;16.70;48.10
3504;DHT22;1766;53.490;10.174;2024-03-02T09:24:07;16.70;48.00
3504;DHT22;1766;53.490;10.174;2024-03-02T09:26:10;16.70;48.00
3504;DHT22;1766;53.490;10.174;2024-03-02T09:28:11;16.70;47.90
3504;DHT22;1766;53.490;10.174;2024-03-02T09:30:13;16.80;48.00
3504;DHT22;1766;53.490;10.174;2024-03-02T09:32:15;16.70;48.00
3504;DHT22;1766;53.490;10.174;2024-03-02T09:34:17;16.80;48.00
3504;DHT22;1766;53.490;10.174;2024-03-02T09:36:21;16.90;48.00
3504;DHT22;1766;53.490;10.174;2024-03-02T09:38:23;16.90;47.90
3504;DHT22;1766;53.490;10.174;2024-03-02T09:40:25;17.00;47.90
3504;DHT22;1766;53.490;10.174;2024-03-02T09:42:29;17.10;47.80
3504;DHT22;1766;53.490;10.174;2024-03-02T09:44:33;17.10;47.80
3504;DHT22;1766;53.490;10.174;2024-03-02T09:46:34;17.20;47.80
3504;DHT22;1766;53.490;10.174;2024-03-02T09:48:37;17.30;47.80
3504;DHT22;1766;53.490;10.174;2024-03-02T09:50:39;17.40;48.40
3504;DHT22;1766;53.490;10.174;2024-03-02T09:52:42;17.50;47.60
3504;DHT22;1766;53.490;10.174;2024-03-02T09:54:44;17.60;47.70
3504;DHT22;1766;53.490;10.174;2024-03-02T09:56:49;17.70;47.60
3504;DHT22;1766;53.490;10.174;2024-03-02T09:58:53;17.70;47.40
3504;DHT22;1766;53.490;10.174;2024-03-02T10:00:55;17.90;47.30
3504;DHT22;1766;53.490;10.174;2024-03-02T10:02:57;17.80;47.10
3504;DHT22;1766;53.490;10.174;2024-03-02T10:05:00;17.80;46.90
3504;DHT22;1766;53.490;10.174;2024-03-02T10:07:12;18.00;47.10
3504;DHT22;1766;53.490;10.174;2024-03-02T10:09:26;18.20;47.20
3504;DHT22;1766;53.490;10.174;2024-03-02T10:11:30;18.20;47.10
3504;DHT22;1766;53.490;10.174;2024-03-02T10:13:33;18.40;46.90
3504;DHT22;1766;53.490;10.174;2024-03-02T10:15:38;18.60;46.60
3504;DHT22;1766;53.490;10.174;2024-03-02T10:17:42;18.70;46.60
3504;DHT22;1766;53.490;10.174;2024-03-02T10:19:43;18.90;46.30
3504;DHT22;1766;53.490;10.174;2024-03-02T10:21:46;19.00;46.10
3504;DHT22;1766;53.490;10.174;2024-03-02T10:23:47;19.10;45.80
3504;DHT22;1766;53.490;10.174;2024-03-02T10:25:49;19.10;45.10
3504;DHT22;1766;53.490;10.174;2024-03-02T10:27:51;19.10;45.00
3504;DHT22;1766;53.490;10.174;2024-03-02T10:29:54;19.20;44.90
3504;DHT22;1766;53.490;10.174;2024-03-02T10:31:57;19.20;44.90
3504;DHT22;1766;53.490;10.174;2024-03-02T10:33:59;19.10;44.80
3504;DHT22;1766;53.490;10.174;2024-03-02T10:36:02;19.30;44.80
3504;DHT22;1766;53.490;10.174;2024-03-02T10:38:05;19.40;44.80
3504;DHT22;1766;53.490;10.174;2024-03-02T10:40:07;19.50;44.50
3504;DHT22;1766;53.490;10.174;2024-03-02T10:42:12;19.50;44.30
3504;DHT22;1766;53.490;10.174;2024-03-02T10:44:16;19.50;44.30
3504;DHT22;1766;53.490;10.174;2024-03-02T10:46:19;19.50;44.10
3504;DHT22;1766;53.490;10.174;2024-03-02T10:48:25;19.40;43.90
3504;DHT22;1766;53.490;10.174;2024-03-02T10:50:27;19.40;43.80
3504;DHT22;1766;53.490;10.174;2024-03-02T10:52:29;19.40;43.70
3504;DHT22;1766;53.490;10.174;2024-03-02T10:54:30;19.50;43.70
3504;DHT22;1766;53.490;10.174;2024-03-02T10:56:39;19.50;43.60
3504;DHT22;1766;53.490;10.174;2024-03-02T10:58:41;19.50;43.60
3504;DHT22;1766;53.490;10.174;2024-03-02T11:00:44;19.50;43.40
3504;DHT22;1766;53.490;10.174;2024-03-02T11:02:51;19.50;43.20
3504;DHT22;1766;53.490;10.174;2024-03-02T11:04:55;19.50;43.00
3504;DHT22;1766;53.490;10.174;2024-03-02T11:07:00;19.50;42.90
3504;DHT22;1766;53.490;10.174;2024-03-02T11:09:10;19.40;42.80
3504;DHT22;1766;53.490;10.174;2024-03-02T11:11:15;19.40;42.90
3504;DHT22;1766;53.490;10.174;2024-03-02T11:13:23;19.40;42.70
3504;DHT22;1766;53.490;10.174;2024-03-02T11:15:27;19.40;42.80
3504;DHT22;1766;53.490;10.174;2024-03-02T11:17:30;19.40;42.80
3504;DHT22;1766;53.490;10.174;2024-03-02T11:19:33;19.40;42.80
3504;DHT22;1766;53.490;10.174;2024-03-02T11:21:37;19.60;42.90
3504;DHT22;1766;53.490;10.174;2024-03-02T11:23:39;19.70;42.70
3504;DHT22;1766;53.490;10.174;2024-03-02T11:25:41;19.70;42.50
3504;DHT22;1766;53.490;10.174;2024-03-02T11:27:59;19.80;42.40
3504;DHT22;1766;53.490;10.174;2024-03-02T11:30:03;19.80;42.30
3504;DHT22;1766;53.490;10.174;2024-03-02T11:32:12;19.90;42.20
3504;DHT22;1766;53.490;10.174;2024-03-02T11:34:20;19.90;42.00
3504;DHT22;1766;53.490;10.174;2024-03-02T11:36:31;19.90;41.90
3504;DHT22;1766;53.490;10.174;2024-03-02T11:38:34;19.90;41.70
3504;DHT22;1766;53.490;10.174;2024-03-02T11:40:39;19.80;41.70
3504;DHT22;1766;53.490;10.174;2024-03-02T11:42:40;19.80;41.70
3504;DHT22;1766;53.490;10.174;2024-03-02T11:44:45;19.80;41.50
3504;DHT22;1766;53.490;10.174;2024-03-02T11:46:52;19.70;41.60
3504;DHT22;1766;53.490;10.174;2024-03-02T11:48:54;19.70;41.60
3504;DHT22;1766;53.490;10.174;2024-03-02T11:50:58;19.80;41.50
3504;DHT22;1766;53.490;10.174;2024-03-02T11:53:01;19.70;41.50
3504;DHT22;1766;53.490;10.174;2024-03-02T11:55:05;19.60;41.50
3504;DHT22;1766;53.490;10.174;2024-03-02T11:57:10;19.70;41.50
3504;DHT22;1766;53.490;10.174;2024-03-02T11:59:12;19.70;41.40
3504;DHT22;1766;53.490;10.174;2024-03-02T12:01:14;19.60;41.30
3504;DHT22;1766;53.490;10.174;2024-03-02T12:03:16;19.50;41.30
3504;DHT22;1766;53.490;10.174;2024-03-02T12:05:19;19.50;41.30
3504;DHT22;1766;53.490;10.174;2024-03-02T12:07:22;19.40;41.20
3504;DHT22;1766;53.490;10.174;2024-03-02T12:09:24;19.40;41.40
3504;DHT22;1766;53.490;10.174;2024-03-02T12:11:28;19.40;41.40
3504;DHT22;1766;53.490;10.174;2024-03-02T12:13:30;19.40;41.40
3504;DHT22;1766;53.490;10.174;2024-03-02T12:15:33;19.30;41.40
3504;DHT22;1766;53.490;10.174;2024-03-02T12:17:37;19.30;41.40
3504;DHT22;1766;53.490;10.174;2024-03-02T12:19:38;19.30;41.30
3504;DHT22;1766;53.490;10.174;2024-03-02T12:21:40;19.30;41.30
3504;DHT22;1766;53.490;10.174;2024-03-02T12:23:42;19.30;41.30
3504;DHT22;1766;53.490;10.174;2024-03-02T12:25:44;19.20;41.30
3504;DHT22;1766;53.490;10.174;2024-03-02T12:27:50;19.20;41.30
3504;DHT22;1766;53.490;10.174;2024-03-02T12:29:53;19.20;41.30
3504;DHT22;1766;53.490;10.174;2024-03-02T12:31:54;19.10;41.20
3504;DHT22;1766;53.490;10.174;2024-03-02T12:33:56;19.20;41.30
3504;DHT22;1766;53.490;10.174;2024-03-02T12:35:58;19.20;41.30
3504;DHT22;1766;53.490;10.174;2024-03-02T12:38:00;19.30;41.40
3504;DHT22;1766;53.490;10.174;2024-03-02T12:40:02;19.30;41.00
3504;DHT22;1766;53.490;10.174;2024-03-02T12:42:04;19.30;41.40
3504;DHT22;1766;53.490;10.174;2024-03-02T12:44:07;19.30;41.40
3504;DHT22;1766;53.490;10.174;2024-03-02T12:46:10;19.20;41.30
3504;DHT22;1766;53.490;10.174;2024-03-02T12:48:13;19.30;41.40
3504;DHT22;1766;53.490;10.174;2024-03-02T12:50:16;19.30;41.40
3504;DHT22;1766;53.490;10.174;2024-03-02T12:52:17;19.30;41.40
3504;DHT22;1766;53.490;10.174;2024-03-02T12:54:22;19.30;41.40
3504;DHT22;1766;53.490;10.174;2024-03-02T12:56:25;19.30;41.30
3504;DHT22;1766;53.490;10.174;2024-03-02T12:58:27;19.30;41.40
3504;DHT22;1766;53.490;10.174;2024-03-02T13:00:32;19.40;41.40
3504;DHT22;1766;53.490;10.174;2024-03-02T13:02:36;19.40;41.40
3504;DHT22;1766;53.490;10.174;2024-03-02T13:04:38;19.40;41.50
3504;DHT22;1766;53.490;10.174;2024-03-02T13:06:42;19.50;41.50